createdAt,value
2019-05-21T00:00:06.528Z,27.13
2019-05-21T00:02:34.795Z,26.33
2019-05-21T00:05:02.054Z,28.70
2019-05-21T00:07:29.355Z,31.07
2019-05-21T00:09:56.896Z,29.33
2019-05-21T00:12:23.989Z,31.93
2019-05-21T00:14:51.144Z,31.27
2019-05-21T00:17:18.250Z,31.13
2019-05-21T00:19:45.300Z,32.33
2019-05-21T00:22:12.371Z,34.03
2019-05-21T00:24:39.496Z,32.77
2019-05-21T00:27:07.728Z,28.80
2019-05-21T00:33:18.992Z,29.13
2019-05-21T00:36:24.810Z,29.10
2019-05-21T00:39:28.876Z,29.80
2019-05-21T00:42:04.109Z,32.10
2019-05-21T00:44:37.906Z,31.67
2019-05-21T00:47:07.216Z,32.73
2019-05-21T00:49:34.489Z,34.00
2019-05-21T00:52:08.181Z,34.67
2019-05-21T00:54:30.940Z,34.90
2019-05-21T00:56:57.988Z,33.00
2019-05-21T00:59:25.034Z,31.57
2019-05-21T01:01:52.092Z,30.13
2019-05-21T01:04:19.242Z,30.90
2019-05-21T01:06:46.332Z,32.13
2019-05-21T01:09:13.391Z,32.93
2019-05-21T01:11:40.442Z,31.03
2019-05-21T01:14:08.208Z,29.37
2019-05-21T01:16:35.263Z,32.10
2019-05-21T01:19:02.335Z,29.20
2019-05-21T01:21:29.493Z,33.33
2019-05-21T01:23:56.557Z,29.47
2019-05-21T01:26:24.047Z,31.57
2019-05-21T01:28:52.504Z,31.33
2019-05-21T01:31:19.561Z,31.23
2019-05-21T01:33:46.628Z,30.60
2019-05-21T01:36:13.683Z,29.73
2019-05-21T01:38:40.744Z,32.90
2019-05-21T01:41:07.796Z,29.57
2019-05-21T01:43:34.860Z,32.27
2019-05-21T01:46:01.924Z,32.90
2019-05-21T01:48:28.975Z,31.20
2019-05-21T01:50:56.132Z,32.30
2019-05-21T01:53:23.188Z,30.70
2019-05-21T01:55:50.288Z,31.53
2019-05-21T01:58:17.758Z,28.17
2019-05-21T02:00:45.176Z,27.20
2019-05-21T02:03:12.320Z,29.33
2019-05-21T02:05:39.383Z,27.33
2019-05-21T02:08:06.574Z,28.80
2019-05-21T02:10:33.717Z,30.17
2019-05-21T02:13:00.773Z,28.20
2019-05-21T02:15:27.827Z,28.17
2019-05-21T02:17:55.988Z,27.23
2019-05-21T02:20:23.036Z,26.17
2019-05-21T02:22:50.093Z,29.60
2019-05-21T02:25:17.460Z,27.57
2019-05-21T02:27:44.628Z,30.13
2019-05-21T02:30:16.051Z,25.77
2019-05-21T02:32:43.104Z,27.87
2019-05-21T02:35:10.377Z,27.27
2019-05-21T02:37:37.854Z,30.27
2019-05-21T02:40:07.225Z,29.27
2019-05-21T02:42:34.379Z,28.47
2019-05-21T02:45:01.550Z,28.17
2019-05-21T02:47:28.732Z,28.50
2019-05-21T02:49:56.161Z,29.87
2019-05-21T02:52:23.218Z,29.97
2019-05-21T02:54:50.387Z,30.33
2019-05-21T02:57:17.445Z,31.67
2019-05-21T02:59:46.401Z,32.83
2019-05-21T03:02:24.055Z,34.00
2019-05-21T03:04:51.134Z,32.10
2019-05-21T03:07:18.401Z,30.07
2019-05-21T03:09:46.956Z,29.43
2019-05-21T03:12:14.689Z,30.03
2019-05-21T03:14:41.739Z,30.97
2019-05-21T03:17:08.805Z,31.90
2019-05-21T03:19:36.130Z,29.07
2019-05-21T03:22:03.313Z,31.63
2019-05-21T03:24:30.399Z,30.53
2019-05-21T03:26:57.478Z,31.53
2019-05-21T03:29:24.537Z,30.07
2019-05-21T03:31:51.588Z,30.87
2019-05-21T03:34:18.751Z,34.03
2019-05-21T03:36:46.244Z,30.93
2019-05-21T03:39:13.292Z,31.10
2019-05-21T03:41:40.350Z,35.03
2019-05-21T03:44:07.512Z,31.87
2019-05-21T03:46:34.559Z,34.00
2019-05-21T03:49:01.826Z,38.47
2019-05-21T03:51:28.873Z,36.30
2019-05-21T03:53:55.937Z,37.60
2019-05-21T03:56:23.003Z,34.37
2019-05-21T03:58:50.069Z,36.47
2019-05-21T04:01:17.113Z,35.43
2019-05-21T04:03:44.176Z,33.83
2019-05-21T04:06:11.252Z,32.73
2019-05-21T04:08:38.322Z,27.53
2019-05-21T04:11:05.613Z,26.97
2019-05-21T04:13:32.785Z,27.90
2019-05-21T04:16:31.368Z,28.40
2019-05-21T04:19:02.797Z,25.00
2019-05-21T04:21:29.872Z,26.50
2019-05-21T04:23:56.945Z,27.30
2019-05-21T04:26:24.201Z,27.40
2019-05-21T04:28:51.255Z,25.87
2019-05-21T04:31:18.307Z,22.70
2019-05-21T04:33:45.369Z,24.73
2019-05-21T04:36:12.424Z,22.77
2019-05-21T04:38:39.493Z,21.93
2019-05-21T04:41:06.653Z,23.73
2019-05-21T04:43:33.714Z,22.43
2019-05-21T04:46:00.765Z,22.77
2019-05-21T04:48:28.024Z,21.47
2019-05-21T04:50:55.079Z,22.47
2019-05-21T04:53:22.240Z,23.03
2019-05-21T04:55:49.405Z,23.87
2019-05-21T04:58:16.460Z,24.43
2019-05-21T05:00:43.616Z,24.13
2019-05-21T05:03:10.672Z,23.37
2019-05-21T05:05:37.829Z,23.37
2019-05-21T05:08:04.981Z,24.43
2019-05-21T05:10:32.183Z,25.13
2019-05-21T05:12:59.318Z,24.77
2019-05-21T05:15:26.376Z,24.90
2019-05-21T05:17:53.463Z,24.27
2019-05-21T05:20:20.532Z,23.87
2019-05-21T05:22:47.593Z,22.83
2019-05-21T05:25:16.655Z,25.83
2019-05-21T05:27:43.715Z,27.27
2019-05-21T05:30:14.140Z,26.23
2019-05-21T05:32:41.306Z,26.53
2019-05-21T05:35:08.592Z,26.13
2019-05-21T05:37:44.144Z,29.33
2019-05-21T05:40:04.895Z,27.93
2019-05-21T05:42:31.944Z,27.37
2019-05-21T05:44:58.993Z,30.30
2019-05-21T05:47:26.081Z,31.00
2019-05-21T05:49:55.466Z,30.53
2019-05-21T05:52:22.553Z,31.57
2019-05-21T05:54:49.618Z,30.87
2019-05-21T05:57:16.674Z,28.87
2019-05-21T05:59:43.725Z,29.93
2019-05-21T06:02:10.898Z,29.90
2019-05-21T06:04:38.086Z,28.97
2019-05-21T06:07:05.350Z,28.80
2019-05-21T06:09:32.417Z,29.33
2019-05-21T06:11:59.567Z,28.07
2019-05-21T06:14:26.832Z,29.33
2019-05-21T06:16:53.901Z,27.23
2019-05-21T06:19:21.049Z,30.00
2019-05-21T06:21:48.216Z,33.50
2019-05-21T06:24:15.298Z,31.13
2019-05-21T06:26:43.647Z,32.07
2019-05-21T06:29:10.815Z,32.80
2019-05-21T06:31:37.877Z,28.37
2019-05-21T06:34:05.157Z,30.23
2019-05-21T06:36:32.208Z,31.57
2019-05-21T06:38:59.304Z,32.17
2019-05-21T06:41:26.359Z,34.03
2019-05-21T06:43:53.430Z,34.97
2019-05-21T06:46:20.571Z,31.13
2019-05-21T06:48:47.629Z,30.50
2019-05-21T06:51:14.681Z,23.20
2019-05-21T06:53:41.751Z,23.50
2019-05-21T06:56:08.912Z,21.03
2019-05-21T06:58:35.944Z,19.17
2019-05-21T07:01:03.193Z,23.77
2019-05-21T07:03:30.253Z,22.73
2019-05-21T07:05:59.207Z,24.50
2019-05-21T07:08:34.813Z,25.70
2019-05-21T07:10:55.243Z,27.30
2019-05-21T07:13:22.284Z,29.37
2019-05-21T07:15:49.445Z,27.33
2019-05-21T07:18:16.501Z,25.70
2019-05-21T07:20:43.576Z,25.00
2019-05-21T07:23:10.737Z,20.73
2019-05-21T07:25:37.788Z,21.40
2019-05-21T07:28:04.874Z,18.40
2019-05-21T07:30:31.928Z,20.40
2019-05-21T07:32:59.066Z,22.03
2019-05-21T07:35:26.176Z,21.30
2019-05-21T07:37:53.246Z,21.97
2019-05-21T07:40:20.515Z,24.03
2019-05-21T07:42:47.564Z,26.13
2019-05-21T07:45:14.833Z,27.43
2019-05-21T07:47:41.884Z,28.43
2019-05-21T07:50:09.175Z,27.77
2019-05-21T07:52:37.981Z,26.20
2019-05-21T07:55:05.440Z,26.83
2019-05-21T07:57:33.792Z,28.77
2019-05-21T08:00:00.857Z,27.03
2019-05-21T08:02:27.918Z,28.93
2019-05-21T08:04:55.023Z,25.30
2019-05-21T08:07:22.236Z,25.73
2019-05-21T08:09:49.786Z,25.53
2019-05-21T08:12:35.447Z,28.23
2019-05-21T08:14:45.996Z,29.03
2019-05-21T08:17:13.381Z,27.97
2019-05-21T08:19:40.441Z,26.23
2019-05-21T08:22:07.593Z,28.53
2019-05-21T08:24:34.647Z,30.70
2019-05-21T08:27:01.753Z,28.07
2019-05-21T08:29:28.887Z,28.67
2019-05-21T08:31:55.946Z,31.23
2019-05-21T08:34:23.011Z,29.67
2019-05-21T08:36:51.473Z,27.80
2019-05-21T08:39:28.142Z,26.47
2019-05-21T08:41:47.615Z,24.57
2019-05-21T08:44:14.669Z,23.93
2019-05-21T08:46:41.892Z,26.27
2019-05-21T08:49:08.962Z,26.17
2019-05-21T08:51:36.025Z,26.70
2019-05-21T08:54:03.301Z,26.13
2019-05-21T08:56:30.565Z,24.70
2019-05-21T08:58:57.628Z,25.80
2019-05-21T09:01:24.677Z,26.77
2019-05-21T09:03:51.777Z,26.97
2019-05-21T09:06:18.927Z,28.80
2019-05-21T09:08:46.004Z,28.97
2019-05-21T09:11:13.088Z,28.40
2019-05-21T09:13:40.252Z,25.23
2019-05-21T09:16:07.515Z,24.80
2019-05-21T09:18:34.569Z,24.70
2019-05-21T09:21:01.844Z,24.73
2019-05-21T09:23:28.911Z,22.87
2019-05-21T09:25:56.443Z,23.77
2019-05-21T09:28:23.603Z,25.37
2019-05-21T09:30:50.663Z,26.83
2019-05-21T09:33:17.832Z,25.77
2019-05-21T09:35:45.120Z,24.33
2019-05-21T09:38:12.186Z,28.80
2019-05-21T09:40:39.289Z,28.73
2019-05-21T09:43:06.417Z,29.13
2019-05-21T09:45:33.489Z,28.30
2019-05-21T09:48:00.571Z,28.80
2019-05-21T09:50:27.633Z,27.57
2019-05-21T09:52:54.684Z,28.93
2019-05-21T09:55:21.853Z,28.83
2019-05-21T09:58:01.633Z,30.40
2019-05-21T10:00:54.877Z,29.33
2019-05-21T10:03:24.072Z,27.50
2019-05-21T10:05:51.237Z,27.63
2019-05-21T10:08:18.296Z,26.73
2019-05-21T10:10:45.335Z,25.70
2019-05-21T10:13:12.419Z,26.40
2019-05-21T10:15:39.484Z,24.40
2019-05-21T10:18:06.654Z,25.97
2019-05-21T10:20:33.832Z,23.73
2019-05-21T10:23:00.976Z,24.77
2019-05-21T10:25:28.040Z,24.00
2019-05-21T10:27:55.131Z,27.33
2019-05-21T10:30:24.727Z,25.17
2019-05-21T10:32:52.371Z,25.60
2019-05-21T10:35:19.553Z,25.10
2019-05-21T10:37:54.677Z,25.67
2019-05-21T10:40:15.794Z,25.57
2019-05-21T10:42:42.945Z,26.30
2019-05-21T10:45:10.711Z,26.70
2019-05-21T10:47:37.776Z,23.90
2019-05-21T10:50:06.066Z,25.00
2019-05-21T10:52:33.128Z,28.40
2019-05-21T10:55:00.543Z,24.33
2019-05-21T10:57:27.751Z,20.33
2019-05-21T10:59:54.885Z,20.47
2019-05-21T11:02:28.792Z,19.17
2019-05-21T11:05:02.271Z,21.03
2019-05-21T11:07:29.522Z,21.63
2019-05-21T11:09:56.680Z,24.60
2019-05-21T11:12:24.288Z,25.13
2019-05-21T11:14:51.341Z,28.00
2019-05-21T11:17:19.116Z,29.33
2019-05-21T11:19:46.397Z,29.47
2019-05-21T11:22:13.455Z,27.50
2019-05-21T11:24:40.521Z,27.07
2019-05-21T11:27:07.768Z,24.87
2019-05-21T11:29:34.835Z,19.00
2019-05-21T11:32:02.106Z,18.80
2019-05-21T11:34:29.192Z,20.47
2019-05-21T11:36:56.265Z,23.30
2019-05-21T11:39:23.325Z,21.90
2019-05-21T11:41:51.692Z,20.47
2019-05-21T11:44:19.352Z,20.60
2019-05-21T11:46:46.765Z,20.70
2019-05-21T11:49:13.829Z,20.40
2019-05-21T11:51:40.897Z,19.67
2019-05-21T11:54:07.951Z,18.47
2019-05-21T11:56:36.495Z,16.57
2019-05-21T11:59:04.022Z,16.33
2019-05-21T12:01:31.068Z,16.07
2019-05-21T12:03:58.130Z,14.00
2019-05-21T12:06:25.283Z,13.37
2019-05-21T12:08:56.855Z,13.43
2019-05-21T12:11:21.617Z,13.10
2019-05-21T12:13:48.676Z,11.80
2019-05-21T12:16:16.956Z,12.90
2019-05-21T12:18:44.013Z,13.23
2019-05-21T12:21:11.084Z,11.63
2019-05-21T12:23:38.132Z,11.37
2019-05-21T12:26:05.221Z,13.00
2019-05-21T12:28:32.320Z,12.67
2019-05-21T12:30:59.400Z,12.00
2019-05-21T12:33:26.572Z,13.37
2019-05-21T12:35:53.832Z,12.03
2019-05-21T12:38:20.898Z,12.67
2019-05-21T12:40:47.957Z,12.57
2019-05-21T12:43:15.012Z,12.30
2019-05-21T12:45:42.277Z,12.53
2019-05-21T12:48:09.331Z,12.87
2019-05-21T12:50:36.420Z,12.63
2019-05-21T12:53:03.680Z,12.80
2019-05-21T12:55:30.836Z,13.03
2019-05-21T12:57:57.884Z,12.40
2019-05-21T13:00:28.676Z,11.77
2019-05-21T13:02:55.737Z,12.93
2019-05-21T13:05:22.797Z,12.37
2019-05-21T13:07:49.856Z,11.60
2019-05-21T13:10:17.127Z,11.73
2019-05-21T13:12:44.194Z,11.90
2019-05-21T13:15:11.455Z,11.97
2019-05-21T13:17:38.751Z,11.53
2019-05-21T13:20:07.332Z,12.13
2019-05-21T13:22:34.678Z,11.33
2019-05-21T13:25:01.807Z,11.10
2019-05-21T13:27:30.288Z,11.20
2019-05-21T13:29:58.948Z,11.10
2019-05-21T13:32:26.065Z,10.90
2019-05-21T13:34:53.172Z,11.70
2019-05-21T13:37:20.346Z,10.47
2019-05-21T13:39:50.408Z,11.60
2019-05-21T13:42:17.486Z,10.73
2019-05-21T13:44:44.560Z,11.43
2019-05-21T13:47:11.821Z,9.90
2019-05-21T13:49:38.909Z,9.43
2019-05-21T13:52:05.987Z,9.10
2019-05-21T13:54:33.152Z,8.73
2019-05-21T13:57:00.233Z,8.33
2019-05-21T13:59:27.316Z,9.23
2019-05-21T14:01:54.721Z,9.00
2019-05-21T14:04:21.977Z,8.10
2019-05-21T14:06:49.062Z,8.77
2019-05-21T14:09:16.135Z,8.53
2019-05-21T14:11:43.305Z,8.50
2019-05-21T14:14:10.490Z,8.00
2019-05-21T14:16:37.807Z,8.77
2019-05-21T14:19:04.996Z,9.00
2019-05-21T14:21:32.061Z,9.17
2019-05-21T14:23:59.153Z,8.67
2019-05-21T14:26:26.313Z,9.33
2019-05-21T14:28:53.384Z,10.03
2019-05-21T14:31:20.876Z,8.83
2019-05-21T14:33:47.940Z,10.63
2019-05-21T14:36:15.087Z,10.00
2019-05-21T14:38:43.464Z,9.23
2019-05-21T14:41:10.535Z,10.47
2019-05-21T14:43:37.588Z,9.47
2019-05-21T14:46:04.867Z,10.10
2019-05-21T14:48:51.563Z,8.17
2019-05-21T14:51:51.527Z,7.37
2019-05-21T14:54:26.812Z,7.97
2019-05-21T14:56:48.075Z,8.40
2019-05-21T14:59:15.619Z,7.50
2019-05-21T15:01:42.690Z,7.50
2019-05-21T15:04:09.823Z,8.17
2019-05-21T15:06:36.992Z,7.27
2019-05-21T15:09:05.275Z,7.67
2019-05-21T15:11:32.416Z,7.53
2019-05-21T15:13:59.569Z,6.80
2019-05-21T15:16:26.625Z,7.50
2019-05-21T15:18:53.760Z,7.50
2019-05-21T15:21:26.200Z,8.10
2019-05-21T15:23:53.265Z,8.40
2019-05-21T15:26:20.324Z,7.97
2019-05-21T15:28:47.513Z,8.80
2019-05-21T15:31:14.626Z,7.53
2019-05-21T15:33:41.690Z,7.47
2019-05-21T15:36:08.913Z,7.10
2019-05-21T15:38:49.476Z,6.97
2019-05-21T15:41:11.880Z,7.20
2019-05-21T15:43:33.968Z,7.00
2019-05-21T15:46:01.106Z,6.93
2019-05-21T15:48:28.271Z,8.03
2019-05-21T15:50:55.568Z,7.73
2019-05-21T15:53:22.721Z,8.20
2019-05-21T15:55:49.894Z,7.60
2019-05-21T15:58:17.029Z,7.73
2019-05-21T16:00:44.203Z,7.37
2019-05-21T16:03:11.361Z,7.37
2019-05-21T16:05:38.419Z,7.53
2019-05-21T16:08:05.470Z,7.37
2019-05-21T16:10:32.617Z,6.57
2019-05-21T16:12:59.681Z,7.03
2019-05-21T16:15:26.836Z,6.27
2019-05-21T16:17:53.893Z,6.20
2019-05-21T16:20:21.045Z,6.20
2019-05-21T16:22:48.093Z,5.80
2019-05-21T16:25:15.972Z,5.83
2019-05-21T16:27:43.125Z,6.13
2019-05-21T16:30:15.444Z,6.63
2019-05-21T16:32:42.601Z,6.90
2019-05-21T16:35:10.767Z,8.80
2019-05-21T16:37:37.828Z,8.67
2019-05-21T16:40:06.020Z,9.00
2019-05-21T16:42:33.274Z,8.63
2019-05-21T16:45:00.527Z,9.13
2019-05-21T16:47:43.888Z,8.93
2019-05-21T16:49:57.962Z,9.03
2019-05-21T16:52:25.172Z,10.30
2019-05-21T16:54:52.224Z,10.70
2019-05-21T16:57:19.383Z,10.97
2019-05-21T16:59:46.476Z,10.80
2019-05-21T17:02:13.753Z,10.33
2019-05-21T17:04:40.925Z,10.53
2019-05-21T17:07:07.984Z,9.00
2019-05-21T17:09:35.060Z,9.00
2019-05-21T17:12:02.104Z,8.93
2019-05-21T17:14:29.265Z,9.20
2019-05-21T17:16:56.335Z,8.90
2019-05-21T17:19:24.586Z,9.47
2019-05-21T17:21:51.636Z,9.20
2019-05-21T17:24:18.771Z,9.40
2019-05-21T17:26:46.120Z,8.80
2019-05-21T17:29:13.189Z,9.47
2019-05-21T17:31:40.268Z,11.63
2019-05-21T17:34:08.520Z,13.00
2019-05-21T17:36:35.584Z,13.30
2019-05-21T17:39:05.061Z,12.60
2019-05-21T17:41:32.236Z,11.37
2019-05-21T17:43:59.312Z,12.63
2019-05-21T17:46:26.503Z,12.43
2019-05-21T17:48:53.660Z,12.57
2019-05-21T17:51:20.740Z,12.13
2019-05-21T17:53:47.906Z,13.00
2019-05-21T17:56:14.965Z,11.70
2019-05-21T17:58:42.031Z,11.07
2019-05-21T18:01:10.108Z,10.70
2019-05-21T18:03:37.917Z,10.67
2019-05-21T18:06:06.696Z,9.87
2019-05-21T18:08:34.896Z,9.87
2019-05-21T18:11:02.180Z,10.43
2019-05-21T18:13:30.044Z,9.67
2019-05-21T18:15:57.456Z,10.73
2019-05-21T18:18:25.014Z,10.77
2019-05-21T18:20:52.625Z,10.27
2019-05-21T18:23:19.790Z,11.47
2019-05-21T18:25:47.520Z,10.90
2019-05-21T18:28:14.688Z,11.00
2019-05-21T18:30:42.393Z,10.90
2019-05-21T18:33:09.866Z,11.93
2019-05-21T18:35:37.028Z,11.37
2019-05-21T18:38:04.335Z,11.80
2019-05-21T18:40:31.680Z,11.97
2019-05-21T18:42:58.864Z,11.20
2019-05-21T18:45:26.027Z,10.87
2019-05-21T18:47:54.413Z,10.83
2019-05-21T18:50:34.894Z,11.53
2019-05-21T18:52:50.664Z,11.17
2019-05-21T18:55:17.838Z,12.27
2019-05-21T18:57:44.895Z,12.20
2019-05-21T19:00:14.069Z,12.23
2019-05-21T19:02:41.228Z,13.13
2019-05-21T19:05:08.854Z,13.37
2019-05-21T19:07:36.516Z,12.90
2019-05-21T19:10:05.432Z,12.30
2019-05-21T19:12:38.052Z,13.03
2019-05-21T19:15:05.705Z,12.50
2019-05-21T19:18:05.832Z,12.50
2019-05-21T19:20:33.112Z,13.67
2019-05-21T19:23:00.376Z,13.97
2019-05-21T19:25:27.536Z,12.73
2019-05-21T19:27:54.602Z,13.67
2019-05-21T19:30:24.207Z,14.10
2019-05-21T19:32:51.945Z,14.10
2019-05-21T19:35:19.001Z,13.27
2019-05-21T19:37:46.269Z,14.67
2019-05-21T19:40:14.841Z,14.93
2019-05-21T19:42:54.404Z,15.00
2019-05-21T19:45:11.327Z,14.10
2019-05-21T19:47:38.704Z,15.67
2019-05-21T19:50:06.627Z,14.50
2019-05-21T19:52:33.913Z,14.47
2019-05-21T19:57:13.723Z,15.23
2019-05-21T19:59:41.110Z,14.97
2019-05-21T20:02:09.241Z,16.37
2019-05-21T20:04:36.608Z,15.47
2019-05-21T20:07:07.056Z,15.17
2019-05-21T20:09:35.892Z,14.60
2019-05-21T20:12:05.791Z,15.10
2019-05-21T20:14:32.947Z,14.80
2019-05-21T20:17:02.414Z,14.60
2019-05-21T20:19:31.891Z,15.40
2019-05-21T20:21:59.496Z,15.97
2019-05-21T20:24:26.556Z,16.20
2019-05-21T20:26:53.905Z,16.30
2019-05-21T20:29:21.256Z,17.00
2019-05-21T20:31:48.864Z,17.47
2019-05-21T20:34:16.293Z,16.83
2019-05-21T20:36:44.164Z,18.43
2019-05-21T20:39:13.857Z,17.10
2019-05-21T20:41:41.504Z,17.43
2019-05-21T20:44:12.264Z,17.13
2019-05-21T20:46:40.967Z,17.50
2019-05-21T20:49:09.412Z,17.60
2019-05-21T20:51:36.706Z,18.23
2019-05-21T20:54:05.167Z,16.60
2019-05-21T20:56:33.251Z,16.47
2019-05-21T20:59:00.428Z,14.63
2019-05-21T21:01:27.584Z,15.13
2019-05-21T21:03:55.649Z,15.10
2019-05-21T21:06:34.753Z,12.93
2019-05-21T21:08:53.623Z,13.03
2019-05-21T21:11:20.775Z,12.90
2019-05-21T21:13:48.593Z,13.70
2019-05-21T21:16:15.884Z,12.37
2019-05-21T21:18:43.628Z,12.53
2019-05-21T21:21:11.504Z,13.00
2019-05-21T21:23:40.220Z,13.10
2019-05-21T21:26:08.189Z,12.33
2019-05-21T21:28:35.615Z,12.93
2019-05-21T21:31:04.819Z,13.40
2019-05-21T21:33:31.976Z,13.23
2019-05-21T21:35:59.149Z,14.87
2019-05-21T21:38:28.256Z,14.53
2019-05-21T21:40:55.391Z,15.90
2019-05-21T21:43:22.471Z,15.83
2019-05-21T21:45:49.949Z,15.10
2019-05-21T21:48:18.022Z,16.80
2019-05-21T21:51:06.613Z,17.03
2019-05-21T21:53:34.883Z,16.90
2019-05-21T21:56:02.171Z,17.57
2019-05-21T21:58:29.265Z,18.23
2019-05-21T22:01:27.485Z,17.67
2019-05-21T22:04:00.531Z,18.83
2019-05-21T22:06:30.924Z,19.43
2019-05-21T22:08:58.157Z,18.70
2019-05-21T22:11:25.577Z,19.27
2019-05-21T22:13:52.822Z,18.50
2019-05-21T22:16:20.688Z,18.50
2019-05-21T22:18:47.954Z,18.00
2019-05-21T22:21:16.404Z,17.80
2019-05-21T22:23:43.861Z,16.73
2019-05-21T22:26:10.908Z,16.87
2019-05-21T22:28:38.079Z,16.10
2019-05-21T22:31:05.235Z,16.20
2019-05-21T22:33:32.889Z,16.17
2019-05-21T22:36:00.139Z,16.87
2019-05-21T22:38:27.568Z,16.00
2019-05-21T22:40:54.732Z,16.27
2019-05-21T22:43:21.897Z,15.77
2019-05-21T22:45:49.166Z,15.93
2019-05-21T22:48:16.414Z,15.83
2019-05-21T22:50:43.467Z,15.13
2019-05-21T22:53:10.529Z,16.37
2019-05-21T22:55:37.584Z,16.37
2019-05-21T22:58:05.158Z,17.23
2019-05-21T23:00:32.343Z,17.50
2019-05-21T23:02:59.917Z,16.77
2019-05-21T23:05:27.084Z,16.57
2019-05-21T23:07:54.144Z,16.30
2019-05-21T23:10:22.692Z,17.13
2019-05-21T23:12:49.761Z,17.47
2019-05-21T23:15:25.112Z,16.60
2019-05-21T23:18:05.401Z,17.37
2019-05-21T23:20:40.997Z,17.60
2019-05-21T23:23:10.358Z,16.67
2019-05-21T23:25:40.607Z,15.73
2019-05-21T23:28:08.891Z,15.17
2019-05-21T23:30:36.360Z,12.00
2019-05-21T23:33:06.091Z,11.93
2019-05-21T23:35:34.632Z,10.83
2019-05-21T23:38:02.852Z,11.77
2019-05-21T23:40:30.716Z,11.23
2019-05-21T23:42:58.487Z,11.23
2019-05-21T23:45:25.749Z,12.63
2019-05-21T23:47:52.808Z,13.37
2019-05-21T23:50:20.188Z,15.33
2019-05-21T23:52:48.318Z,16.17
2019-05-21T23:55:15.603Z,15.70
2019-05-21T23:57:43.269Z,16.60
